sensor_id;sensor_type;location;lat;lon;timestamp;P1;durP1;ratioP1;P2;durP2;ratioP2
18568;SDS011;14780;48.316;-1.050;2023-11-22T00:00:32;1.80;;;1.08;;
18568;SDS011;14780;48.316;-1.050;2023-11-22T00:03:17;1.15;;;1.05;;
18568;SDS011;14780;48.316;-1.050;2023-11-22T00:06:02;1.15;;;0.98;;
18568;SDS011;14780;48.316;-1.050;2023-11-22T00:08:48;2.17;;;1.20;;
18568;SDS011;14780;48.316;-1.050;2023-11-22T00:11:32;1.17;;;0.98;;
18568;SDS011;14780;48.316;-1.050;2023-11-22T00:14:17;1.50;;;1.10;;
18568;SDS011;14780;48.316;-1.050;2023-11-22T00:17:01;1.58;;;1.13;;
18568;SDS011;14780;48.316;-1.050;2023-11-22T00:19:47;2.10;;;0.90;;
18568;SDS011;14780;48.316;-1.050;2023-11-22T00:22:32;1.25;;;1.15;;
18568;SDS011;14780;48.316;-1.050;2023-11-22T00:25:16;1.10;;;1.00;;
18568;SDS011;14780;48.316;-1.050;2023-11-22T00:28:03;1.27;;;1.00;;
18568;SDS011;14780;48.316;-1.050;2023-11-22T00:30:49;1.02;;;0.93;;
18568;SDS011;14780;48.316;-1.050;2023-11-22T00:33:34;2.05;;;1.17;;
18568;SDS011;14780;48.316;-1.050;2023-11-22T00:36:19;0.93;;;0.87;;
18568;SDS011;14780;48.316;-1.050;2023-11-22T00:39:04;1.42;;;1.02;;
18568;SDS011;14780;48.316;-1.050;2023-11-22T00:41:49;1.75;;;0.90;;
18568;SDS011;14780;48.316;-1.050;2023-11-22T00:44:33;1.23;;;0.98;;
18568;SDS011;14780;48.316;-1.050;2023-11-22T00:47:19;1.67;;;1.23;;
18568;SDS011;14780;48.316;-1.050;2023-11-22T00:50:05;1.33;;;1.10;;
18568;SDS011;14780;48.316;-1.050;2023-11-22T00:52:49;1.55;;;1.10;;
18568;SDS011;14780;48.316;-1.050;2023-11-22T00:55:34;3.50;;;1.10;;
18568;SDS011;14780;48.316;-1.050;2023-11-22T00:58:18;1.83;;;0.90;;
18568;SDS011;14780;48.316;-1.050;2023-11-22T01:01:03;1.88;;;1.17;;
18568;SDS011;14780;48.316;-1.050;2023-11-22T01:03:48;1.20;;;0.90;;
18568;SDS011;14780;48.316;-1.050;2023-11-22T01:06:33;0.98;;;0.88;;
18568;SDS011;14780;48.316;-1.050;2023-11-22T01:09:18;1.98;;;1.00;;
18568;SDS011;14780;48.316;-1.050;2023-11-22T01:12:04;2.00;;;1.17;;
18568;SDS011;14780;48.316;-1.050;2023-11-22T01:14:51;1.08;;;0.90;;
18568;SDS011;14780;48.316;-1.050;2023-11-22T01:17:35;1.80;;;1.10;;
18568;SDS011;14780;48.316;-1.050;2023-11-22T01:20:20;0.73;;;0.63;;
18568;SDS011;14780;48.316;-1.050;2023-11-22T01:23:06;1.60;;;1.10;;
18568;SDS011;14780;48.316;-1.050;2023-11-22T01:25:51;1.10;;;1.00;;
18568;SDS011;14780;48.316;-1.050;2023-11-22T01:28:36;1.30;;;0.90;;
18568;SDS011;14780;48.316;-1.050;2023-11-22T01:31:21;0.82;;;0.80;;
18568;SDS011;14780;48.316;-1.050;2023-11-22T01:34:07;1.40;;;0.98;;
18568;SDS011;14780;48.316;-1.050;2023-11-22T01:36:51;1.63;;;0.90;;
18568;SDS011;14780;48.316;-1.050;2023-11-22T01:39:39;2.40;;;1.00;;
18568;SDS011;14780;48.316;-1.050;2023-11-22T01:42:26;1.10;;;0.90;;
18568;SDS011;14780;48.316;-1.050;2023-11-22T01:45:11;1.00;;;0.95;;
18568;SDS011;14780;48.316;-1.050;2023-11-22T01:47:57;0.90;;;0.80;;
18568;SDS011;14780;48.316;-1.050;2023-11-22T01:50:43;1.42;;;1.10;;
18568;SDS011;14780;48.316;-1.050;2023-11-22T01:53:28;0.85;;;0.70;;
18568;SDS011;14780;48.316;-1.050;2023-11-22T01:56:14;1.02;;;0.90;;
18568;SDS011;14780;48.316;-1.050;2023-11-22T01:59:01;1.20;;;0.90;;
18568;SDS011;14780;48.316;-1.050;2023-11-22T02:01:46;1.50;;;0.90;;
18568;SDS011;14780;48.316;-1.050;2023-11-22T02:04:33;1.25;;;0.98;;
18568;SDS011;14780;48.316;-1.050;2023-11-22T02:07:17;1.10;;;0.90;;
18568;SDS011;14780;48.316;-1.050;2023-11-22T02:10:02;1.48;;;1.00;;
18568;SDS011;14780;48.316;-1.050;2023-11-22T02:12:51;1.20;;;0.90;;
18568;SDS011;14780;48.316;-1.050;2023-11-22T02:15:35;1.15;;;0.90;;
18568;SDS011;14780;48.316;-1.050;2023-11-22T02:18:21;1.58;;;1.10;;
18568;SDS011;14780;48.316;-1.050;2023-11-22T02:21:07;1.27;;;1.00;;
18568;SDS011;14780;48.316;-1.050;2023-11-22T02:23:51;1.30;;;0.90;;
18568;SDS011;14780;48.316;-1.050;2023-11-22T02:26:36;2.03;;;1.23;;
18568;SDS011;14780;48.316;-1.050;2023-11-22T02:29:24;1.80;;;1.02;;
18568;SDS011;14780;48.316;-1.050;2023-11-22T02:32:09;0.77;;;0.77;;
18568;SDS011;14780;48.316;-1.050;2023-11-22T02:34:54;1.55;;;1.05;;
18568;SDS011;14780;48.316;-1.050;2023-11-22T02:37:39;0.85;;;0.77;;
18568;SDS011;14780;48.316;-1.050;2023-11-22T02:40:23;1.33;;;1.00;;
18568;SDS011;14780;48.316;-1.050;2023-11-22T02:43:08;1.38;;;0.90;;
18568;SDS011;14780;48.316;-1.050;2023-11-22T02:45:54;1.15;;;1.05;;
18568;SDS011;14780;48.316;-1.050;2023-11-22T02:48:39;0.88;;;0.88;;
18568;SDS011;14780;48.316;-1.050;2023-11-22T02:51:23;1.70;;;1.20;;
18568;SDS011;14780;48.316;-1.050;2023-11-22T02:54:09;1.27;;;0.95;;
18568;SDS011;14780;48.316;-1.050;2023-11-22T02:56:54;1.05;;;0.93;;
18568;SDS011;14780;48.316;-1.050;2023-11-22T02:59:42;0.93;;;0.90;;
18568;SDS011;14780;48.316;-1.050;2023-11-22T03:02:28;1.25;;;0.88;;
18568;SDS011;14780;48.316;-1.050;2023-11-22T03:05:12;0.80;;;0.80;;
18568;SDS011;14780;48.316;-1.050;2023-11-22T03:07:57;1.08;;;0.98;;
18568;SDS011;14780;48.316;-1.050;2023-11-22T03:10:42;0.73;;;0.73;;
18568;SDS011;14780;48.316;-1.050;2023-11-22T03:13:28;1.80;;;1.10;;
18568;SDS011;14780;48.316;-1.050;2023-11-22T03:16:12;1.45;;;0.90;;
18568;SDS011;14780;48.316;-1.050;2023-11-22T03:18:56;1.38;;;1.00;;
18568;SDS011;14780;48.316;-1.050;2023-11-22T03:21:41;1.20;;;0.90;;
18568;SDS011;14780;48.316;-1.050;2023-11-22T03:24:27;1.60;;;1.03;;
18568;SDS011;14780;48.316;-1.050;2023-11-22T03:27:14;1.15;;;0.75;;
18568;SDS011;14780;48.316;-1.050;2023-11-22T03:29:59;0.95;;;0.85;;
18568;SDS011;14780;48.316;-1.050;2023-11-22T03:32:44;1.92;;;1.08;;
18568;SDS011;14780;48.316;-1.050;2023-11-22T03:35:28;1.05;;;0.75;;
18568;SDS011;14780;48.316;-1.050;2023-11-22T03:38:13;1.50;;;0.90;;
18568;SDS011;14780;48.316;-1.050;2023-11-22T03:40:57;1.48;;;1.13;;
18568;SDS011;14780;48.316;-1.050;2023-11-22T03:43:43;1.15;;;1.02;;
18568;SDS011;14780;48.316;-1.050;2023-11-22T03:46:27;1.08;;;0.80;;
18568;SDS011;14780;48.316;-1.050;2023-11-22T03:49:12;0.80;;;0.80;;
18568;SDS011;14780;48.316;-1.050;2023-11-22T03:51:58;1.75;;;0.98;;
18568;SDS011;14780;48.316;-1.050;2023-11-22T03:54:42;1.30;;;0.90;;
18568;SDS011;14780;48.316;-1.050;2023-11-22T03:57:28;0.80;;;0.70;;
18568;SDS011;14780;48.316;-1.050;2023-11-22T04:00:12;1.27;;;1.00;;
18568;SDS011;14780;48.316;-1.050;2023-11-22T04:02:57;1.00;;;0.80;;
18568;SDS011;14780;48.316;-1.050;2023-11-22T04:05:45;0.85;;;0.85;;
18568;SDS011;14780;48.316;-1.050;2023-11-22T04:08:30;1.95;;;1.20;;
18568;SDS011;14780;48.316;-1.050;2023-11-22T04:11:15;1.00;;;0.90;;
18568;SDS011;14780;48.316;-1.050;2023-11-22T04:14:01;1.60;;;0.90;;
18568;SDS011;14780;48.316;-1.050;2023-11-22T04:16:46;1.73;;;1.08;;
18568;SDS011;14780;48.316;-1.050;2023-11-22T04:19:31;1.20;;;0.95;;
18568;SDS011;14780;48.316;-1.050;2023-11-22T04:22:15;1.60;;;1.10;;
18568;SDS011;14780;48.316;-1.050;2023-11-22T04:25:00;1.23;;;0.82;;
18568;SDS011;14780;48.316;-1.050;2023-11-22T04:27:46;2.03;;;1.00;;
18568;SDS011;14780;48.316;-1.050;2023-11-22T04:30:46;1.70;;;1.20;;
18568;SDS011;14780;48.316;-1.050;2023-11-22T04:33:30;2.00;;;1.10;;
18568;SDS011;14780;48.316;-1.050;2023-11-22T04:36:15;0.90;;;0.90;;
18568;SDS011;14780;48.316;-1.050;2023-11-22T04:39:00;1.17;;;0.93;;
18568;SDS011;14780;48.316;-1.050;2023-11-22T04:41:47;0.90;;;0.80;;
18568;SDS011;14780;48.316;-1.050;2023-11-22T04:44:31;1.70;;;1.10;;
18568;SDS011;14780;48.316;-1.050;2023-11-22T04:47:16;0.88;;;0.80;;
18568;SDS011;14780;48.316;-1.050;2023-11-22T04:50:01;1.00;;;0.90;;
18568;SDS011;14780;48.316;-1.050;2023-11-22T04:52:46;1.48;;;0.90;;
18568;SDS011;14780;48.316;-1.050;2023-11-22T04:55:30;1.65;;;0.93;;
18568;SDS011;14780;48.316;-1.050;2023-11-22T04:58:15;1.43;;;1.07;;
18568;SDS011;14780;48.316;-1.050;2023-11-22T05:01:00;1.10;;;1.00;;
18568;SDS011;14780;48.316;-1.050;2023-11-22T05:03:45;1.00;;;0.82;;
18568;SDS011;14780;48.316;-1.050;2023-11-22T05:06:30;1.55;;;1.05;;
18568;SDS011;14780;48.316;-1.050;2023-11-22T05:09:14;1.30;;;0.80;;
18568;SDS011;14780;48.316;-1.050;2023-11-22T05:12:01;2.70;;;0.90;;
18568;SDS011;14780;48.316;-1.050;2023-11-22T05:14:47;1.10;;;0.90;;
18568;SDS011;14780;48.316;-1.050;2023-11-22T05:17:31;1.38;;;0.93;;
18568;SDS011;14780;48.316;-1.050;2023-11-22T05:20:16;1.77;;;1.00;;
18568;SDS011;14780;48.316;-1.050;2023-11-22T05:23:00;1.58;;;1.23;;
18568;SDS011;14780;48.316;-1.050;2023-11-22T05:25:45;1.23;;;1.00;;
18568;SDS011;14780;48.316;-1.050;2023-11-22T05:28:30;1.30;;;0.90;;
18568;SDS011;14780;48.316;-1.050;2023-11-22T05:31:15;1.33;;;0.88;;
18568;SDS011;14780;48.316;-1.050;2023-11-22T05:34:00;1.33;;;1.23;;
18568;SDS011;14780;48.316;-1.050;2023-11-22T05:36:44;1.77;;;1.00;;
18568;SDS011;14780;48.316;-1.050;2023-11-22T05:39:29;1.85;;;1.05;;
18568;SDS011;14780;48.316;-1.050;2023-11-22T05:42:13;1.67;;;1.02;;
18568;SDS011;14780;48.316;-1.050;2023-11-22T05:44:58;1.65;;;0.95;;
18568;SDS011;14780;48.316;-1.050;2023-11-22T05:47:43;1.17;;;0.90;;
18568;SDS011;14780;48.316;-1.050;2023-11-22T05:50:28;1.58;;;1.10;;
18568;SDS011;14780;48.316;-1.050;2023-11-22T05:53:12;1.08;;;1.00;;
18568;SDS011;14780;48.316;-1.050;2023-11-22T05:56:02;1.25;;;0.93;;
18568;SDS011;14780;48.316;-1.050;2023-11-22T05:58:47;3.00;;;1.20;;
18568;SDS011;14780;48.316;-1.050;2023-11-22T06:01:32;1.63;;;1.20;;
18568;SDS011;14780;48.316;-1.050;2023-11-22T06:04:17;1.45;;;1.20;;
18568;SDS011;14780;48.316;-1.050;2023-11-22T06:07:02;1.85;;;1.15;;
18568;SDS011;14780;48.316;-1.050;2023-11-22T06:09:48;1.90;;;1.20;;
18568;SDS011;14780;48.316;-1.050;2023-11-22T06:12:33;1.17;;;1.02;;
18568;SDS011;14780;48.316;-1.050;2023-11-22T06:15:18;0.90;;;0.90;;
18568;SDS011;14780;48.316;-1.050;2023-11-22T06:18:04;2.17;;;0.98;;
18568;SDS011;14780;48.316;-1.050;2023-11-22T06:20:49;1.50;;;1.02;;
18568;SDS011;14780;48.316;-1.050;2023-11-22T06:23:34;1.30;;;1.08;;
18568;SDS011;14780;48.316;-1.050;2023-11-22T06:26:19;1.10;;;1.00;;
18568;SDS011;14780;48.316;-1.050;2023-11-22T06:29:04;1.25;;;0.93;;
18568;SDS011;14780;48.316;-1.050;2023-11-22T06:31:49;4.00;;;1.40;;
18568;SDS011;14780;48.316;-1.050;2023-11-22T06:34:34;1.23;;;0.83;;
18568;SDS011;14780;48.316;-1.050;2023-11-22T06:37:20;1.23;;;0.85;;
18568;SDS011;14780;48.316;-1.050;2023-11-22T06:40:04;2.27;;;1.07;;
18568;SDS011;14780;48.316;-1.050;2023-11-22T06:42:49;1.70;;;1.10;;
18568;SDS011;14780;48.316;-1.050;2023-11-22T06:45:35;1.90;;;1.27;;
18568;SDS011;14780;48.316;-1.050;2023-11-22T06:48:20;2.42;;;1.30;;
18568;SDS011;14780;48.316;-1.050;2023-11-22T06:51:04;3.55;;;1.17;;
18568;SDS011;14780;48.316;-1.050;2023-11-22T06:53:50;2.57;;;1.30;;
18568;SDS011;14780;48.316;-1.050;2023-11-22T06:56:37;2.03;;;0.98;;
18568;SDS011;14780;48.316;-1.050;2023-11-22T06:59:22;1.88;;;1.17;;
18568;SDS011;14780;48.316;-1.050;2023-11-22T07:02:07;2.78;;;1.33;;
18568;SDS011;14780;48.316;-1.050;2023-11-22T07:04:52;1.77;;;1.40;;
18568;SDS011;14780;48.316;-1.050;2023-11-22T07:07:36;5.00;;;1.60;;
18568;SDS011;14780;48.316;-1.050;2023-11-22T07:10:22;3.28;;;1.50;;
18568;SDS011;14780;48.316;-1.050;2023-11-22T07:13:07;3.70;;;1.48;;
18568;SDS011;14780;48.316;-1.050;2023-11-22T07:15:52;3.28;;;1.50;;
18568;SDS011;14780;48.316;-1.050;2023-11-22T07:18:38;2.35;;;1.48;;
18568;SDS011;14780;48.316;-1.050;2023-11-22T07:21:22;2.80;;;1.63;;
18568;SDS011;14780;48.316;-1.050;2023-11-22T07:24:07;4.40;;;1.90;;
18568;SDS011;14780;48.316;-1.050;2023-11-22T07:26:52;3.65;;;1.52;;
18568;SDS011;14780;48.316;-1.050;2023-11-22T07:29:39;3.45;;;1.52;;
18568;SDS011;14780;48.316;-1.050;2023-11-22T07:32:25;3.78;;;1.40;;
18568;SDS011;14780;48.316;-1.050;2023-11-22T07:35:09;13.60;;;2.00;;
18568;SDS011;14780;48.316;-1.050;2023-11-22T07:37:55;2.97;;;1.80;;
18568;SDS011;14780;48.316;-1.050;2023-11-22T07:40:41;3.47;;;1.42;;
18568;SDS011;14780;48.316;-1.050;2023-11-22T07:43:26;3.60;;;1.50;;
18568;SDS011;14780;48.316;-1.050;2023-11-22T07:46:11;2.97;;;1.48;;
18568;SDS011;14780;48.316;-1.050;2023-11-22T07:48:56;2.77;;;1.60;;
18568;SDS011;14780;48.316;-1.050;2023-11-22T07:51:41;5.45;;;1.65;;
18568;SDS011;14780;48.316;-1.050;2023-11-22T07:54:28;3.65;;;1.52;;
18568;SDS011;14780;48.316;-1.050;2023-11-22T07:57:13;4.53;;;1.50;;
18568;SDS011;14780;48.316;-1.050;2023-11-22T07:59:58;4.93;;;1.98;;
18568;SDS011;14780;48.316;-1.050;2023-11-22T08:02:45;2.00;;;1.30;;
18568;SDS011;14780;48.316;-1.050;2023-11-22T08:05:30;3.77;;;1.40;;
18568;SDS011;14780;48.316;-1.050;2023-11-22T08:08:20;9.32;;;1.70;;
18568;SDS011;14780;48.316;-1.050;2023-11-22T08:11:06;3.97;;;1.58;;
18568;SDS011;14780;48.316;-1.050;2023-11-22T08:13:58;3.13;;;1.50;;
18568;SDS011;14780;48.316;-1.050;2023-11-22T08:16:43;3.73;;;1.43;;
18568;SDS011;14780;48.316;-1.050;2023-11-22T08:19:29;2.78;;;1.60;;
18568;SDS011;14780;48.316;-1.050;2023-11-22T08:22:14;2.33;;;1.50;;
18568;SDS011;14780;48.316;-1.050;2023-11-22T08:24:58;3.73;;;1.60;;
18568;SDS011;14780;48.316;-1.050;2023-11-22T08:27:43;3.30;;;1.55;;
18568;SDS011;14780;48.316;-1.050;2023-11-22T08:30:28;4.53;;;1.48;;
18568;SDS011;14780;48.316;-1.050;2023-11-22T08:33:16;3.03;;;1.70;;
18568;SDS011;14780;48.316;-1.050;2023-11-22T08:36:01;4.88;;;1.60;;
18568;SDS011;14780;48.316;-1.050;2023-11-22T08:38:48;3.33;;;1.33;;
18568;SDS011;14780;48.316;-1.050;2023-11-22T08:41:33;2.67;;;1.50;;
18568;SDS011;14780;48.316;-1.050;2023-11-22T08:44:18;2.05;;;1.27;;
18568;SDS011;14780;48.316;-1.050;2023-11-22T08:47:03;3.05;;;1.40;;
18568;SDS011;14780;48.316;-1.050;2023-11-22T08:49:48;2.75;;;1.65;;
18568;SDS011;14780;48.316;-1.050;2023-11-22T08:52:32;4.35;;;1.63;;
18568;SDS011;14780;48.316;-1.050;2023-11-22T08:55:20;3.20;;;1.60;;
18568;SDS011;14780;48.316;-1.050;2023-11-22T08:58:06;3.17;;;1.60;;
18568;SDS011;14780;48.316;-1.050;2023-11-22T09:00:52;3.77;;;1.63;;
18568;SDS011;14780;48.316;-1.050;2023-11-22T09:03:37;2.20;;;1.50;;
18568;SDS011;14780;48.316;-1.050;2023-11-22T09:06:21;2.85;;;1.42;;
18568;SDS011;14780;48.316;-1.050;2023-11-22T09:09:07;2.57;;;1.70;;
18568;SDS011;14780;48.316;-1.050;2023-11-22T09:11:52;2.13;;;1.50;;
18568;SDS011;14780;48.316;-1.050;2023-11-22T09:14:39;2.92;;;1.65;;
18568;SDS011;14780;48.316;-1.050;2023-11-22T09:17:24;2.58;;;1.50;;
18568;SDS011;14780;48.316;-1.050;2023-11-22T09:20:09;1.92;;;1.40;;
18568;SDS011;14780;48.316;-1.050;2023-11-22T09:22:58;2.28;;;1.58;;
18568;SDS011;14780;48.316;-1.050;2023-11-22T09:25:43;2.15;;;1.55;;
18568;SDS011;14780;48.316;-1.050;2023-11-22T09:28:29;2.45;;;1.58;;
18568;SDS011;14780;48.316;-1.050;2023-11-22T09:31:14;2.72;;;1.50;;
18568;SDS011;14780;48.316;-1.050;2023-11-22T09:34:03;2.30;;;1.38;;
18568;SDS011;14780;48.316;-1.050;2023-11-22T09:36:48;3.85;;;1.60;;
18568;SDS011;14780;48.316;-1.050;2023-11-22T09:39:33;2.07;;;1.33;;
18568;SDS011;14780;48.316;-1.050;2023-11-22T09:42:18;3.22;;;1.80;;
18568;SDS011;14780;48.316;-1.050;2023-11-22T09:45:04;3.77;;;1.50;;
18568;SDS011;14780;48.316;-1.050;2023-11-22T09:47:49;3.00;;;1.60;;
18568;SDS011;14780;48.316;-1.050;2023-11-22T09:56:25;4.80;;;1.90;;
18568;SDS011;14780;48.316;-1.050;2023-11-22T09:59:11;4.85;;;1.60;;
18568;SDS011;14780;48.316;-1.050;2023-11-22T10:01:57;2.08;;;1.42;;
18568;SDS011;14780;48.316;-1.050;2023-11-22T10:04:43;2.90;;;1.40;;
18568;SDS011;14780;48.316;-1.050;2023-11-22T10:07:28;3.47;;;1.70;;
18568;SDS011;14780;48.316;-1.050;2023-11-22T10:10:13;1.77;;;1.40;;
18568;SDS011;14780;48.316;-1.050;2023-11-22T10:13:02;3.63;;;1.55;;
18568;SDS011;14780;48.316;-1.050;2023-11-22T10:15:47;3.15;;;1.77;;
18568;SDS011;14780;48.316;-1.050;2023-11-22T10:18:32;3.92;;;1.60;;
18568;SDS011;14780;48.316;-1.050;2023-11-22T10:21:22;2.60;;;1.50;;
18568;SDS011;14780;48.316;-1.050;2023-11-22T10:24:11;2.45;;;1.70;;
18568;SDS011;14780;48.316;-1.050;2023-11-22T10:26:56;3.90;;;1.77;;
18568;SDS011;14780;48.316;-1.050;2023-11-22T10:29:42;2.90;;;1.48;;
18568;SDS011;14780;48.316;-1.050;2023-11-22T10:32:29;2.85;;;1.60;;
18568;SDS011;14780;48.316;-1.050;2023-11-22T10:35:13;3.17;;;1.55;;
18568;SDS011;14780;48.316;-1.050;2023-11-22T10:37:59;3.80;;;1.55;;
18568;SDS011;14780;48.316;-1.050;2023-11-22T10:40:50;3.25;;;1.65;;
18568;SDS011;14780;48.316;-1.050;2023-11-22T10:43:38;4.20;;;1.75;;
18568;SDS011;14780;48.316;-1.050;2023-11-22T10:46:24;2.50;;;1.60;;
18568;SDS011;14780;48.316;-1.050;2023-11-22T10:49:13;2.10;;;1.30;;
18568;SDS011;14780;48.316;-1.050;2023-11-22T10:51:57;2.20;;;1.40;;
18568;SDS011;14780;48.316;-1.050;2023-11-22T10:54:49;2.03;;;1.40;;
18568;SDS011;14780;48.316;-1.050;2023-11-22T10:57:40;2.13;;;1.48;;
18568;SDS011;14780;48.316;-1.050;2023-11-22T11:00:31;1.88;;;1.35;;
18568;SDS011;14780;48.316;-1.050;2023-11-22T11:03:18;2.45;;;1.48;;
18568;SDS011;14780;48.316;-1.050;2023-11-22T11:06:04;4.07;;;1.95;;
18568;SDS011;14780;48.316;-1.050;2023-11-22T11:08:52;3.85;;;1.40;;
18568;SDS011;14780;48.316;-1.050;2023-11-22T11:11:39;1.83;;;1.40;;
18568;SDS011;14780;48.316;-1.050;2023-11-22T11:14:24;2.95;;;1.65;;
18568;SDS011;14780;48.316;-1.050;2023-11-22T11:17:10;3.10;;;1.60;;
18568;SDS011;14780;48.316;-1.050;2023-11-22T11:19:57;2.85;;;1.45;;
18568;SDS011;14780;48.316;-1.050;2023-11-22T11:22:42;2.33;;;1.52;;
18568;SDS011;14780;48.316;-1.050;2023-11-22T11:25:29;2.33;;;1.48;;
18568;SDS011;14780;48.316;-1.050;2023-11-22T11:28:17;2.55;;;1.65;;
18568;SDS011;14780;48.316;-1.050;2023-11-22T11:31:01;2.50;;;1.70;;
18568;SDS011;14780;48.316;-1.050;2023-11-22T11:36:37;3.50;;;1.52;;
18568;SDS011;14780;48.316;-1.050;2023-11-22T11:39:26;4.15;;;1.70;;
18568;SDS011;14780;48.316;-1.050;2023-11-22T11:42:14;3.90;;;1.80;;
18568;SDS011;14780;48.316;-1.050;2023-11-22T11:45:03;3.50;;;1.80;;
18568;SDS011;14780;48.316;-1.050;2023-11-22T11:47:50;3.75;;;1.80;;
18568;SDS011;14780;48.316;-1.050;2023-11-22T11:50:34;3.37;;;2.13;;
18568;SDS011;14780;48.316;-1.050;2023-11-22T11:53:19;5.25;;;2.08;;
18568;SDS011;14780;48.316;-1.050;2023-11-22T11:56:04;4.97;;;1.87;;
18568;SDS011;14780;48.316;-1.050;2023-11-22T11:58:50;5.30;;;2.40;;
18568;SDS011;14780;48.316;-1.050;2023-11-22T12:01:36;4.60;;;2.10;;
18568;SDS011;14780;48.316;-1.050;2023-11-22T12:04:22;4.10;;;1.65;;
18568;SDS011;14780;48.316;-1.050;2023-11-22T12:07:11;4.13;;;2.00;;
18568;SDS011;14780;48.316;-1.050;2023-11-22T12:09:56;5.47;;;1.80;;
18568;SDS011;14780;48.316;-1.050;2023-11-22T12:12:43;4.37;;;1.80;;
18568;SDS011;14780;48.316;-1.050;2023-11-22T12:15:29;3.97;;;2.03;;
18568;SDS011;14780;48.316;-1.050;2023-11-22T12:18:14;3.42;;;2.00;;
18568;SDS011;14780;48.316;-1.050;2023-11-22T12:20:59;5.10;;;1.65;;
18568;SDS011;14780;48.316;-1.050;2023-11-22T12:23:44;5.57;;;1.73;;
18568;SDS011;14780;48.316;-1.050;2023-11-22T12:26:31;5.28;;;2.08;;
18568;SDS011;14780;48.316;-1.050;2023-11-22T12:29:18;4.53;;;1.60;;
18568;SDS011;14780;48.316;-1.050;2023-11-22T12:32:02;4.03;;;2.03;;
18568;SDS011;14780;48.316;-1.050;2023-11-22T12:34:47;6.50;;;1.90;;
18568;SDS011;14780;48.316;-1.050;2023-11-22T12:37:33;3.35;;;1.85;;
18568;SDS011;14780;48.316;-1.050;2023-11-22T12:40:19;2.65;;;1.60;;
18568;SDS011;14780;48.316;-1.050;2023-11-22T12:43:04;5.50;;;1.90;;
18568;SDS011;14780;48.316;-1.050;2023-11-22T12:48:46;4.53;;;2.05;;
18568;SDS011;14780;48.316;-1.050;2023-11-22T12:51:30;4.75;;;1.85;;
18568;SDS011;14780;48.316;-1.050;2023-11-22T12:54:15;4.25;;;1.77;;
18568;SDS011;14780;48.316;-1.050;2023-11-22T12:57:00;5.38;;;2.10;;
18568;SDS011;14780;48.316;-1.050;2023-11-22T12:59:46;6.93;;;2.60;;
18568;SDS011;14780;48.316;-1.050;2023-11-22T13:02:30;4.55;;;1.90;;
18568;SDS011;14780;48.316;-1.050;2023-11-22T13:05:15;7.45;;;2.35;;
18568;SDS011;14780;48.316;-1.050;2023-11-22T13:08:00;7.10;;;2.20;;
18568;SDS011;14780;48.316;-1.050;2023-11-22T13:10:45;4.25;;;1.98;;
18568;SDS011;14780;48.316;-1.050;2023-11-22T13:13:33;11.23;;;2.40;;
18568;SDS011;14780;48.316;-1.050;2023-11-22T13:16:19;7.85;;;2.13;;
18568;SDS011;14780;48.316;-1.050;2023-11-22T13:19:04;6.13;;;2.30;;
18568;SDS011;14780;48.316;-1.050;2023-11-22T13:21:50;7.50;;;2.28;;
18568;SDS011;14780;48.316;-1.050;2023-11-22T13:24:34;5.03;;;2.10;;
18568;SDS011;14780;48.316;-1.050;2023-11-22T13:27:19;4.32;;;2.00;;
18568;SDS011;14780;48.316;-1.050;2023-11-22T13:30:04;7.05;;;2.03;;
18568;SDS011;14780;48.316;-1.050;2023-11-22T13:32:49;5.72;;;2.22;;
18568;SDS011;14780;48.316;-1.050;2023-11-22T13:35:40;8.52;;;2.75;;
18568;SDS011;14780;48.316;-1.050;2023-11-22T13:38:24;10.48;;;2.38;;
18568;SDS011;14780;48.316;-1.050;2023-11-22T13:41:09;9.32;;;2.40;;
18568;SDS011;14780;48.316;-1.050;2023-11-22T13:43:55;4.65;;;2.15;;
18568;SDS011;14780;48.316;-1.050;2023-11-22T13:46:39;5.35;;;2.60;;
18568;SDS011;14780;48.316;-1.050;2023-11-22T13:49:24;5.93;;;2.25;;
18568;SDS011;14780;48.316;-1.050;2023-11-22T13:52:09;8.82;;;2.38;;
18568;SDS011;14780;48.316;-1.050;2023-11-22T13:54:53;4.83;;;2.03;;
18568;SDS011;14780;48.316;-1.050;2023-11-22T13:57:41;4.65;;;2.17;;
18568;SDS011;14780;48.316;-1.050;2023-11-22T14:00:26;6.97;;;2.10;;
18568;SDS011;14780;48.316;-1.050;2023-11-22T14:03:16;5.90;;;2.55;;
18568;SDS011;14780;48.316;-1.050;2023-11-22T14:06:01;6.90;;;2.20;;
18568;SDS011;14780;48.316;-1.050;2023-11-22T14:08:48;7.90;;;2.53;;
18568;SDS011;14780;48.316;-1.050;2023-11-22T14:11:32;4.88;;;2.13;;
18568;SDS011;14780;48.316;-1.050;2023-11-22T14:14:19;3.30;;;1.90;;
18568;SDS011;14780;48.316;-1.050;2023-11-22T14:17:04;3.80;;;1.88;;
18568;SDS011;14780;48.316;-1.050;2023-11-22T14:19:49;5.93;;;2.28;;
18568;SDS011;14780;48.316;-1.050;2023-11-22T14:22:34;4.63;;;2.03;;
18568;SDS011;14780;48.316;-1.050;2023-11-22T14:25:19;4.95;;;1.98;;
18568;SDS011;14780;48.316;-1.050;2023-11-22T14:28:04;5.13;;;1.90;;
18568;SDS011;14780;48.316;-1.050;2023-11-22T14:30:49;5.22;;;2.08;;
18568;SDS011;14780;48.316;-1.050;2023-11-22T14:33:38;3.53;;;2.20;;
18568;SDS011;14780;48.316;-1.050;2023-11-22T14:36:23;4.35;;;1.92;;
18568;SDS011;14780;48.316;-1.050;2023-11-22T14:39:10;4.28;;;1.90;;
18568;SDS011;14780;48.316;-1.050;2023-11-22T14:41:58;4.68;;;2.20;;
18568;SDS011;14780;48.316;-1.050;2023-11-22T14:44:43;6.10;;;2.10;;
18568;SDS011;14780;48.316;-1.050;2023-11-22T14:47:28;3.70;;;1.88;;
18568;SDS011;14780;48.316;-1.050;2023-11-22T14:50:19;3.40;;;1.80;;
18568;SDS011;14780;48.316;-1.050;2023-11-22T14:53:04;3.55;;;1.75;;
18568;SDS011;14780;48.316;-1.050;2023-11-22T14:55:51;3.70;;;1.60;;
18568;SDS011;14780;48.316;-1.050;2023-11-22T14:58:35;3.92;;;1.83;;
18568;SDS011;14780;48.316;-1.050;2023-11-22T15:01:20;3.38;;;1.73;;
18568;SDS011;14780;48.316;-1.050;2023-11-22T15:04:07;4.72;;;2.25;;
18568;SDS011;14780;48.316;-1.050;2023-11-22T15:06:53;3.05;;;1.80;;
18568;SDS011;14780;48.316;-1.050;2023-11-22T15:09:37;2.95;;;1.80;;
18568;SDS011;14780;48.316;-1.050;2023-11-22T15:12:23;4.32;;;1.73;;
18568;SDS011;14780;48.316;-1.050;2023-11-22T15:15:08;2.95;;;1.65;;
18568;SDS011;14780;48.316;-1.050;2023-11-22T15:17:54;3.15;;;1.83;;
18568;SDS011;14780;48.316;-1.050;2023-11-22T15:20:39;5.20;;;1.90;;
18568;SDS011;14780;48.316;-1.050;2023-11-22T15:23:24;2.77;;;1.70;;
18568;SDS011;14780;48.316;-1.050;2023-11-22T15:26:08;2.97;;;1.88;;
18568;SDS011;14780;48.316;-1.050;2023-11-22T15:28:53;2.17;;;1.52;;
18568;SDS011;14780;48.316;-1.050;2023-11-22T15:31:38;2.30;;;1.50;;
18568;SDS011;14780;48.316;-1.050;2023-11-22T15:34:24;2.13;;;1.60;;
18568;SDS011;14780;48.316;-1.050;2023-11-22T15:37:11;2.92;;;1.55;;
18568;SDS011;14780;48.316;-1.050;2023-11-22T15:39:55;2.70;;;1.83;;
18568;SDS011;14780;48.316;-1.050;2023-11-22T15:42:41;3.47;;;1.80;;
18568;SDS011;14780;48.316;-1.050;2023-11-22T15:45:25;3.80;;;1.75;;
18568;SDS011;14780;48.316;-1.050;2023-11-22T15:48:10;5.40;;;1.80;;
18568;SDS011;14780;48.316;-1.050;2023-11-22T15:50:56;4.70;;;1.98;;
18568;SDS011;14780;48.316;-1.050;2023-11-22T15:53:40;4.20;;;1.77;;
18568;SDS011;14780;48.316;-1.050;2023-11-22T15:56:26;5.28;;;1.95;;
18568;SDS011;14780;48.316;-1.050;2023-11-22T15:59:11;5.10;;;1.90;;
18568;SDS011;14780;48.316;-1.050;2023-11-22T16:01:56;3.90;;;1.98;;
18568;SDS011;14780;48.316;-1.050;2023-11-22T16:04:40;4.22;;;1.95;;
18568;SDS011;14780;48.316;-1.050;2023-11-22T16:07:25;3.08;;;1.90;;
18568;SDS011;14780;48.316;-1.050;2023-11-22T16:10:10;4.07;;;2.10;;
18568;SDS011;14780;48.316;-1.050;2023-11-22T16:12:55;6.18;;;2.20;;
18568;SDS011;14780;48.316;-1.050;2023-11-22T16:15:40;4.85;;;2.00;;
18568;SDS011;14780;48.316;-1.050;2023-11-22T16:18:26;2.92;;;1.80;;
18568;SDS011;14780;48.316;-1.050;2023-11-22T16:21:11;3.05;;;2.10;;
18568;SDS011;14780;48.316;-1.050;2023-11-22T16:23:56;6.43;;;2.60;;
18568;SDS011;14780;48.316;-1.050;2023-11-22T16:26:41;5.88;;;2.25;;
18568;SDS011;14780;48.316;-1.050;2023-11-22T16:29:25;3.60;;;2.00;;
18568;SDS011;14780;48.316;-1.050;2023-11-22T16:32:11;6.47;;;2.30;;